Time;durP1;ratioP1;P1;durP2;ratioP2;P2;SDS_P1;SDS_P2;PMS_P1;PMS_P2;Temp;Humidity;BMP_temperature;BMP_pressure;BME280_temperature;BME280_humidity;BME280_pressure;Samples;Min_cycle;Max_cycle;Signal;HPM_P1;HPM_P2
2023/07/20 00:01:50;;;;;;;3.78;2.10;;;;;;;;;;4928981;28;99634;-80
2023/07/20 00:04:16;;;;;;;2.15;1.98;;;;;;;;;;4930837;28;98705;-81
2023/07/20 00:06:43;;;;;;;3.08;1.98;;;;;;;;;;4933142;28;99318;-80
2023/07/20 00:09:09;;;;;;;3.15;1.98;;;;;;;;;;4929110;28;98506;-79
2023/07/20 00:11:37;;;;;;;3.63;2.03;;;;;;;;;;4930533;28;99566;-79
2023/07/20 00:14:05;;;;;;;2.30;1.80;;;;;;;;;;4930276;28;99851;-80
2023/07/20 00:16:31;;;;;;;3.63;2.17;;;;;;;;;;4929691;28;98337;-79
2023/07/20 00:18:58;;;;;;;2.63;2.08;;;;;;;;;;4930521;28;98424;-81
2023/07/20 00:21:24;;;;;;;4.03;2.30;;;;;;;;;;4930149;28;99856;-80
2023/07/20 00:23:51;;;;;;;1.88;1.77;;;;;;;;;;4929173;28;98241;-79
2023/07/20 00:26:17;;;;;;;1.63;1.50;;;;;;;;;;4928700;28;99594;-80
2023/07/20 00:28:45;;;;;;;2.20;1.55;;;;;;;;;;4931985;28;98271;-80
2023/07/20 00:31:11;;;;;;;2.67;1.73;;;;;;;;;;4929038;28;98339;-80
2023/07/20 00:33:38;;;;;;;1.50;1.40;;;;;;;;;;4930671;28;98734;-79
2023/07/20 00:36:04;;;;;;;1.60;1.50;;;;;;;;;;4910102;28;98885;-81
2023/07/20 00:38:31;;;;;;;2.80;1.38;;;;;;;;;;4925079;28;98584;-79
2023/07/20 00:40:58;;;;;;;1.30;1.20;;;;;;;;;;4928715;28;101741;-80
2023/07/20 00:43:24;;;;;;;1.15;1.05;;;;;;;;;;4930256;28;98298;-80
2023/07/20 00:45:51;;;;;;;1.00;1.00;;;;;;;;;;4928925;28;99363;-80
2023/07/20 00:48:18;;;;;;;1.27;1.20;;;;;;;;;;4931864;28;101852;-81
2023/07/20 00:50:45;;;;;;;0.88;0.88;;;;;;;;;;4928178;28;101173;-81
2023/07/20 00:53:11;;;;;;;0.90;0.90;;;;;;;;;;4927572;28;99182;-80
2023/07/20 00:55:38;;;;;;;2.50;0.82;;;;;;;;;;4930631;28;98300;-80
2023/07/20 00:58:06;;;;;;;0.90;0.90;;;;;;;;;;4927892;28;99693;-80
2023/07/20 01:00:34;;;;;;;0.90;0.70;;;;;;;;;;4929314;28;99965;-80
2023/07/20 01:03:00;;;;;;;0.95;0.95;;;;;;;;;;4928529;28;98272;-80
2023/07/20 01:05:47;;;;;;;0.98;0.98;;;;;;;;;;4927642;28;99578;-80
2023/07/20 01:08:33;;;;;;;1.10;1.10;;;;;;;;;;4927176;28;99944;-81
2023/07/20 01:11:06;;;;;;;0.80;0.80;;;;;;;;;;4933269;28;98173;-80
2023/07/20 01:13:32;;;;;;;1.17;1.08;;;;;;;;;;4946988;28;100166;-80
2023/07/20 01:16:02;;;;;;;1.00;1.00;;;;;;;;;;4932436;28;98232;-80
2023/07/20 01:18:29;;;;;;;1.50;1.40;;;;;;;;;;4929319;28;98552;-80
2023/07/20 01:21:09;;;;;;;1.85;1.40;;;;;;;;;;4929069;28;99169;-80
2023/07/20 01:23:47;;;;;;;1.15;1.15;;;;;;;;;;4929726;28;98220;-80
2023/07/20 01:26:14;;;;;;;2.70;1.40;;;;;;;;;;4929057;28;98518;-81
2023/07/20 01:29:02;;;;;;;1.10;1.10;;;;;;;;;;4928669;28;101567;-81
2023/07/20 01:31:30;;;;;;;6.22;1.40;;;;;;;;;;4929333;28;98194;-82
2023/07/20 01:33:58;;;;;;;1.10;1.10;;;;;;;;;;4932135;28;98364;-81
2023/07/20 01:36:26;;;;;;;2.67;1.23;;;;;;;;;;4929392;28;98018;-80
2023/07/20 01:38:53;;;;;;;1.55;1.42;;;;;;;;;;4930508;28;98377;-80
2023/07/20 01:41:20;;;;;;;4.07;1.52;;;;;;;;;;4930457;28;98880;-81
2023/07/20 01:43:46;;;;;;;1.25;1.25;;;;;;;;;;4932838;28;97981;-80
2023/07/20 01:46:15;;;;;;;2.63;2.42;;;;;;;;;;4932743;28;98357;-80
2023/07/20 01:48:42;;;;;;;1.65;1.50;;;;;;;;;;4930668;28;100025;-82
2023/07/20 01:51:08;;;;;;;1.33;1.33;;;;;;;;;;4932773;28;98148;-81
2023/07/20 01:53:35;;;;;;;1.50;1.50;;;;;;;;;;4932636;28;98411;-81
2023/07/20 01:56:01;;;;;;;1.65;1.55;;;;;;;;;;4933608;28;99996;-81
2023/07/20 01:58:28;;;;;;;1.90;1.80;;;;;;;;;;4930829;28;100274;-81
2023/07/20 02:00:54;;;;;;;2.03;1.88;;;;;;;;;;4938951;28;102156;-80
2023/07/20 02:03:21;;;;;;;1.58;1.48;;;;;;;;;;4929733;28;98288;-80
2023/07/20 02:05:48;;;;;;;2.45;2.10;;;;;;;;;;4931367;28;98263;-81
2023/07/20 02:08:16;;;;;;;1.70;1.70;;;;;;;;;;4944754;28;99987;-80
2023/07/20 02:10:44;;;;;;;2.05;1.95;;;;;;;;;;4931775;28;98192;-82
2023/07/20 02:13:11;;;;;;;1.90;1.80;;;;;;;;;;4947997;28;100986;-81
2023/07/20 02:15:37;;;;;;;1.65;1.63;;;;;;;;;;4930449;28;100037;-82
2023/07/20 02:18:04;;;;;;;2.15;2.05;;;;;;;;;;4936291;28;97898;-82
2023/07/20 02:20:33;;;;;;;2.08;1.98;;;;;;;;;;4932276;28;100035;-82
2023/07/20 02:22:59;;;;;;;2.13;2.03;;;;;;;;;;4930153;28;98303;-80
2023/07/20 02:25:26;;;;;;;2.33;2.13;;;;;;;;;;4930669;28;100194;-80
2023/07/20 02:27:52;;;;;;;4.03;1.88;;;;;;;;;;4930697;28;100863;-80
2023/07/20 02:30:19;;;;;;;2.10;1.90;;;;;;;;;;4930329;28;98470;-80
2023/07/20 02:32:48;;;;;;;3.20;2.00;;;;;;;;;;4932502;28;98397;-80
2023/07/20 02:35:15;;;;;;;2.17;2.05;;;;;;;;;;4928323;28;100142;-80
2023/07/20 02:37:42;;;;;;;1.80;1.70;;;;;;;;;;4933034;28;98943;-81
2023/07/20 02:40:09;;;;;;;2.33;2.13;;;;;;;;;;4932015;28;101653;-80
2023/07/20 02:42:35;;;;;;;2.38;2.17;;;;;;;;;;4931730;28;98383;-81
2023/07/20 02:45:02;;;;;;;4.63;2.05;;;;;;;;;;4931408;28;98281;-81
2023/07/20 02:47:29;;;;;;;2.22;2.13;;;;;;;;;;4930039;28;100769;-81
2023/07/20 02:49:55;;;;;;;2.17;1.98;;;;;;;;;;4931660;28;98218;-81
2023/07/20 02:52:23;;;;;;;2.33;2.15;;;;;;;;;;4931037;28;98628;-80
2023/07/20 02:54:49;;;;;;;2.25;1.83;;;;;;;;;;4931549;28;99259;-81
2023/07/20 02:57:16;;;;;;;2.10;2.00;;;;;;;;;;4931692;28;98143;-80
2023/07/20 02:59:42;;;;;;;2.15;2.05;;;;;;;;;;4934466;28;99399;-82
2023/07/20 03:02:09;;;;;;;2.00;1.90;;;;;;;;;;4932281;28;98477;-81
2023/07/20 03:04:39;;;;;;;2.30;2.10;;;;;;;;;;4930424;28;100855;-81
2023/07/20 03:07:05;;;;;;;2.00;1.90;;;;;;;;;;4930541;28;99829;-81
2023/07/20 03:09:32;;;;;;;2.38;2.17;;;;;;;;;;4930324;28;98228;-82
2023/07/20 03:11:58;;;;;;;1.75;1.67;;;;;;;;;;4931814;28;98784;-82
2023/07/20 03:14:25;;;;;;;2.75;2.35;;;;;;;;;;4931310;28;98974;-81
2023/07/20 03:16:52;;;;;;;2.28;2.17;;;;;;;;;;4930209;28;98304;-81
2023/07/20 03:19:18;;;;;;;1.95;1.85;;;;;;;;;;4928746;28;101118;-81
2023/07/20 03:21:45;;;;;;;2.13;2.03;;;;;;;;;;4935002;28;98677;-80
2023/07/20 03:24:11;;;;;;;2.17;1.88;;;;;;;;;;4931494;28;98522;-81
2023/07/20 03:26:38;;;;;;;2.42;2.22;;;;;;;;;;4930686;28;98866;-82
2023/07/20 03:29:06;;;;;;;2.00;1.90;;;;;;;;;;4932307;28;98346;-81
2023/07/20 03:31:33;;;;;;;3.15;2.42;;;;;;;;;;4931663;28;98361;-81
2023/07/20 03:33:59;;;;;;;2.20;2.00;;;;;;;;;;4930472;28;98951;-82
2023/07/20 03:36:26;;;;;;;10.02;2.83;;;;;;;;;;4929881;28;98325;-81
2023/07/20 03:38:52;;;;;;;2.70;2.47;;;;;;;;;;4945879;28;99462;-81
2023/07/20 03:41:19;;;;;;;2.20;2.10;;;;;;;;;;4930228;28;99991;-81
2023/07/20 03:43:46;;;;;;;1.92;1.83;;;;;;;;;;4933861;28;99276;-81
2023/07/20 03:46:12;;;;;;;1.92;1.83;;;;;;;;;;4948388;28;99948;-81
2023/07/20 03:48:39;;;;;;;2.00;1.90;;;;;;;;;;4948491;28;98257;-81
2023/07/20 03:51:06;;;;;;;1.90;1.80;;;;;;;;;;4949151;28;99310;-81
2023/07/20 03:53:32;;;;;;;1.98;1.88;;;;;;;;;;4950436;28;99884;-81
2023/07/20 03:55:59;;;;;;;2.17;2.08;;;;;;;;;;4945137;28;98479;-81
2023/07/20 03:58:27;;;;;;;1.70;1.65;;;;;;;;;;4930690;28;98377;-81
2023/07/20 04:00:53;;;;;;;2.25;2.08;;;;;;;;;;4927564;28;100145;-81
2023/07/20 04:03:20;;;;;;;2.35;2.05;;;;;;;;;;4930821;28;98257;-81
2023/07/20 04:05:47;;;;;;;1.83;1.73;;;;;;;;;;4933650;28;98802;-82
2023/07/20 04:08:13;;;;;;;2.08;1.98;;;;;;;;;;4928617;28;98400;-80
2023/07/20 04:10:43;;;;;;;2.75;2.65;;;;;;;;;;4930690;28;99418;-81
2023/07/20 04:13:09;;;;;;;2.63;2.53;;;;;;;;;;4930534;28;100152;-81
2023/07/20 04:15:36;;;;;;;3.03;1.88;;;;;;;;;;4929921;28;98481;-80
2023/07/20 04:18:02;;;;;;;2.13;1.95;;;;;;;;;;4930654;28;98375;-81
2023/07/20 04:20:29;;;;;;;2.00;1.80;;;;;;;;;;4930168;28;98769;-81
2023/07/20 04:22:55;;;;;;;2.45;2.25;;;;;;;;;;4924050;28;98247;-82
2023/07/20 04:25:23;;;;;;;4.03;2.28;;;;;;;;;;4924207;28;100256;-81
2023/07/20 04:27:51;;;;;;;2.03;1.92;;;;;;;;;;4932212;28;101862;-81
2023/07/20 04:30:22;;;;;;;2.17;2.08;;;;;;;;;;4929934;28;98512;-81
2023/07/20 04:32:49;;;;;;;7.82;2.10;;;;;;;;;;4928297;28;101112;-81
2023/07/20 04:35:18;;;;;;;2.00;1.90;;;;;;;;;;4929147;28;98389;-81
2023/07/20 04:37:46;;;;;;;2.42;2.03;;;;;;;;;;4909079;28;101445;-81
2023/07/20 04:40:16;;;;;;;2.17;2.08;;;;;;;;;;4925583;28;100194;-81
2023/07/20 04:42:42;;;;;;;2.40;2.20;;;;;;;;;;4925856;28;98232;-81
2023/07/20 04:45:09;;;;;;;3.05;2.13;;;;;;;;;;4925187;28;101103;-83
2023/07/20 04:47:36;;;;;;;2.45;2.25;;;;;;;;;;4912768;28;101413;-80
2023/07/20 04:50:03;;;;;;;2.20;2.10;;;;;;;;;;4928436;28;100566;-81
2023/07/20 04:52:30;;;;;;;2.08;1.98;;;;;;;;;;4936348;28;98986;-80
2023/07/20 04:55:07;;;;;;;3.60;2.65;;;;;;;;;;4945153;28;98205;-81
2023/07/20 04:57:34;;;;;;;4.07;3.13;;;;;;;;;;4927347;28;99801;-80
2023/07/20 05:00:00;;;;;;;2.85;2.50;;;;;;;;;;4930046;28;99101;-81
2023/07/20 05:02:27;;;;;;;2.75;2.55;;;;;;;;;;4928523;28;98247;-80
2023/07/20 05:04:54;;;;;;;4.22;2.80;;;;;;;;;;4928211;28;101275;-80
2023/07/20 05:07:20;;;;;;;2.88;2.70;;;;;;;;;;4927743;28;101615;-81
2023/07/20 05:09:49;;;;;;;2.58;2.40;;;;;;;;;;4940157;28;98262;-81
2023/07/20 05:12:15;;;;;;;3.92;2.83;;;;;;;;;;4948718;28;98722;-80
2023/07/20 05:14:45;;;;;;;2.72;2.63;;;;;;;;;;4951686;28;98195;-80
2023/07/20 05:17:12;;;;;;;2.60;2.40;;;;;;;;;;4951487;28;100673;-81
2023/07/20 05:19:39;;;;;;;2.80;2.50;;;;;;;;;;4930860;28;101518;-81
2023/07/20 05:22:10;;;;;;;4.68;2.70;;;;;;;;;;4928268;28;98160;-81
2023/07/20 05:24:37;;;;;;;3.47;2.40;;;;;;;;;;4928797;28;101391;-80
2023/07/20 05:27:03;;;;;;;2.47;2.35;;;;;;;;;;4923447;28;101301;-79
2023/07/20 05:29:30;;;;;;;2.83;2.63;;;;;;;;;;4933194;28;98323;-81
2023/07/20 05:31:57;;;;;;;2.58;2.38;;;;;;;;;;4936369;28;99463;-81
2023/07/20 05:34:23;;;;;;;5.40;2.45;;;;;;;;;;4931974;28;98327;-80
2023/07/20 05:36:50;;;;;;;2.40;2.30;;;;;;;;;;4932978;28;99737;-81
2023/07/20 05:39:17;;;;;;;2.22;2.13;;;;;;;;;;4933054;28;99888;-81
2023/07/20 05:41:44;;;;;;;5.15;2.40;;;;;;;;;;4932276;28;98889;-80
2023/07/20 05:44:10;;;;;;;2.35;1.90;;;;;;;;;;4933758;28;98119;-81
2023/07/20 05:46:37;;;;;;;3.78;2.13;;;;;;;;;;4931485;28;98954;-81
2023/07/20 05:49:20;;;;;;;2.17;1.98;;;;;;;;;;4933115;28;98088;-80
2023/07/20 05:51:47;;;;;;;2.13;1.85;;;;;;;;;;4932840;28;99407;-82
2023/07/20 05:54:14;;;;;;;3.03;1.90;;;;;;;;;;4934581;28;98147;-80
2023/07/20 05:56:40;;;;;;;2.10;1.90;;;;;;;;;;4932261;28;98721;-79
2023/07/20 05:59:07;;;;;;;2.38;1.85;;;;;;;;;;4932924;28;99089;-81
2023/07/20 06:01:33;;;;;;;2.40;2.17;;;;;;;;;;4939757;28;98263;-81
2023/07/20 06:04:00;;;;;;;3.75;2.00;;;;;;;;;;4930902;28;98508;-81
2023/07/20 06:06:26;;;;;;;1.85;1.75;;;;;;;;;;4919710;28;100158;-80
2023/07/20 06:08:53;;;;;;;3.78;2.20;;;;;;;;;;4931739;28;98310;-81
2023/07/20 06:11:19;;;;;;;1.88;1.77;;;;;;;;;;4930484;28;99648;-81
2023/07/20 06:13:46;;;;;;;3.03;1.90;;;;;;;;;;4932210;28;98997;-81
2023/07/20 06:16:12;;;;;;;1.05;1.05;;;;;;;;;;4932528;28;98269;-81
2023/07/20 06:18:38;;;;;;;1.20;1.10;;;;;;;;;;4931037;28;99927;-82
2023/07/20 06:21:05;;;;;;;1.05;1.05;;;;;;;;;;4928508;28;98259;-83
2023/07/20 06:23:31;;;;;;;0.98;0.90;;;;;;;;;;4931068;28;98760;-78
2023/07/20 06:25:58;;;;;;;1.17;0.85;;;;;;;;;;4931679;28;100110;-82
2023/07/20 06:28:24;;;;;;;1.58;0.80;;;;;;;;;;4929677;28;99235;-80
2023/07/20 06:30:51;;;;;;;2.83;1.13;;;;;;;;;;4931329;28;98397;-77
2023/07/20 06:33:17;;;;;;;1.58;0.90;;;;;;;;;;4931322;28;100260;-77
2023/07/20 06:35:44;;;;;;;1.45;0.85;;;;;;;;;;4929427;28;98557;-77
2023/07/20 06:38:10;;;;;;;1.02;0.93;;;;;;;;;;4922707;28;99497;-77
2023/07/20 06:40:40;;;;;;;1.50;0.88;;;;;;;;;;4925605;28;98795;-79
2023/07/20 06:43:06;;;;;;;0.85;0.70;;;;;;;;;;4928028;28;98903;-75
2023/07/20 06:45:37;;;;;;;2.75;0.90;;;;;;;;;;4928690;28;99793;-78
2023/07/20 06:48:03;;;;;;;2.28;0.70;;;;;;;;;;4927361;28;99750;-75
2023/07/20 06:50:30;;;;;;;1.88;0.60;;;;;;;;;;4930312;28;98405;-75
2023/07/20 06:52:58;;;;;;;1.83;0.80;;;;;;;;;;4931336;28;99097;-76
2023/07/20 06:55:25;;;;;;;1.30;0.90;;;;;;;;;;4927962;28;98255;-77
2023/07/20 06:57:52;;;;;;;0.60;0.60;;;;;;;;;;4923688;28;98542;-77
2023/07/20 07:00:24;;;;;;;0.70;0.70;;;;;;;;;;4931115;28;98152;-79
2023/07/20 07:02:51;;;;;;;0.68;0.68;;;;;;;;;;4930777;28;99615;-80
2023/07/20 07:05:18;;;;;;;1.63;1.00;;;;;;;;;;4930372;28;98998;-80
2023/07/20 07:07:47;;;;;;;2.45;1.00;;;;;;;;;;4931577;28;98260;-80
2023/07/20 07:10:13;;;;;;;1.50;0.80;;;;;;;;;;4931192;28;99422;-82
2023/07/20 07:12:40;;;;;;;0.70;0.70;;;;;;;;;;4929545;28;100090;-80
2023/07/20 07:15:07;;;;;;;1.55;0.63;;;;;;;;;;4930816;28;98260;-81
2023/07/20 07:17:35;;;;;;;0.80;0.80;;;;;;;;;;4930480;28;98512;-79
2023/07/20 07:20:04;;;;;;;0.95;0.65;;;;;;;;;;4922898;28;99885;-80
2023/07/20 07:22:32;;;;;;;0.60;0.60;;;;;;;;;;4930954;28;98465;-80
2023/07/20 07:24:58;;;;;;;2.03;0.68;;;;;;;;;;4929255;28;100192;-81
2023/07/20 07:27:25;;;;;;;1.27;0.60;;;;;;;;;;4930561;28;98218;-81
2023/07/20 07:29:51;;;;;;;0.52;0.52;;;;;;;;;;4931650;28;98942;-81
2023/07/20 07:32:18;;;;;;;0.85;0.50;;;;;;;;;;4929775;28;100536;-82
2023/07/20 07:34:46;;;;;;;1.95;0.70;;;;;;;;;;4931434;28;98061;-79
2023/07/20 07:37:13;;;;;;;0.60;0.60;;;;;;;;;;4929353;28;99367;-80
2023/07/20 07:39:39;;;;;;;0.60;0.60;;;;;;;;;;4929650;28;99102;-80
2023/07/20 07:42:06;;;;;;;1.73;0.70;;;;;;;;;;4934807;28;98246;-80
2023/07/20 07:44:32;;;;;;;0.55;0.50;;;;;;;;;;4930703;28;100138;-80
2023/07/20 07:46:59;;;;;;;0.47;0.47;;;;;;;;;;4930219;28;98323;-79
2023/07/20 07:49:25;;;;;;;1.02;0.70;;;;;;;;;;4929981;28;98550;-80
2023/07/20 07:51:52;;;;;;;0.70;0.70;;;;;;;;;;4931638;28;100045;-79
2023/07/20 07:54:18;;;;;;;0.50;0.50;;;;;;;;;;4929867;28;98180;-80
2023/07/20 07:56:45;;;;;;;4.07;0.60;;;;;;;;;;4930357;28;98681;-80
2023/07/20 07:59:11;;;;;;;1.13;0.40;;;;;;;;;;4930470;28;99009;-80
2023/07/20 08:01:38;;;;;;;0.63;0.63;;;;;;;;;;4930307;28;98334;-80
2023/07/20 08:04:04;;;;;;;0.85;0.50;;;;;;;;;;4933959;28;99295;-81
2023/07/20 08:06:31;;;;;;;0.85;0.60;;;;;;;;;;4930127;28;99171;-79
2023/07/20 08:08:58;;;;;;;0.85;0.38;;;;;;;;;;4930261;28;98416;-80
2023/07/20 08:11:24;;;;;;;0.88;0.38;;;;;;;;;;4930551;28;98862;-81
2023/07/20 08:13:51;;;;;;;0.35;0.35;;;;;;;;;;4913468;28;98447;-79
2023/07/20 08:16:17;;;;;;;0.35;0.30;;;;;;;;;;4925552;28;100268;-81
2023/07/20 08:18:45;;;;;;;0.75;0.50;;;;;;;;;;4930386;28;98950;-81
2023/07/20 08:21:12;;;;;;;2.92;0.50;;;;;;;;;;4929858;28;98381;-81
2023/07/20 08:23:38;;;;;;;1.02;0.50;;;;;;;;;;4930713;28;99327;-80
2023/07/20 08:26:05;;;;;;;0.40;0.40;;;;;;;;;;4933231;28;98918;-81
2023/07/20 08:28:32;;;;;;;0.60;0.57;;;;;;;;;;4928810;28;99723;-81
2023/07/20 08:30:58;;;;;;;1.77;0.40;;;;;;;;;;4930720;28;100119;-80
2023/07/20 08:33:25;;;;;;;0.30;0.30;;;;;;;;;;4930234;28;98199;-81
2023/07/20 08:35:51;;;;;;;0.40;0.40;;;;;;;;;;4929716;28;98535;-81
2023/07/20 08:38:18;;;;;;;1.00;0.50;;;;;;;;;;4923001;28;99414;-81
2023/07/20 08:40:45;;;;;;;0.40;0.30;;;;;;;;;;4910487;28;98258;-81
2023/07/20 08:43:12;;;;;;;0.20;0.20;;;;;;;;;;4910399;28;98620;-80
2023/07/20 08:45:40;;;;;;;0.55;0.40;;;;;;;;;;4911091;28;100050;-81
2023/07/20 08:48:07;;;;;;;0.40;0.40;;;;;;;;;;4927650;28;98071;-81
2023/07/20 08:50:34;;;;;;;0.22;0.22;;;;;;;;;;4932473;28;99809;-80
2023/07/20 08:53:01;;;;;;;0.35;0.35;;;;;;;;;;4934075;28;99494;-80
2023/07/20 08:55:29;;;;;;;0.35;0.35;;;;;;;;;;4933398;28;98713;-80
2023/07/20 08:57:58;;;;;;;1.30;0.70;;;;;;;;;;4932677;28;100367;-80
2023/07/20 09:00:25;;;;;;;0.45;0.32;;;;;;;;;;4933348;28;98493;-81
2023/07/20 09:02:53;;;;;;;0.28;0.28;;;;;;;;;;4932740;28;99481;-81
2023/07/20 09:05:20;;;;;;;0.25;0.25;;;;;;;;;;4932743;28;99840;-80
2023/07/20 09:07:47;;;;;;;1.27;0.30;;;;;;;;;;4937334;28;98162;-81
2023/07/20 09:10:13;;;;;;;0.32;0.28;;;;;;;;;;4933103;28;100332;-81
2023/07/20 09:12:41;;;;;;;1.83;0.32;;;;;;;;;;4932079;28;98745;-81
2023/07/20 09:15:08;;;;;;;1.13;0.75;;;;;;;;;;4933447;28;99396;-81
2023/07/20 09:17:35;;;;;;;0.30;0.30;;;;;;;;;;4932310;28;100495;-79
2023/07/20 09:20:07;;;;;;;1.55;0.60;;;;;;;;;;4933492;28;97982;-81
2023/07/20 09:22:34;;;;;;;;;;;;;;;;;;4933823;28;98760;-81
2023/07/20 09:25:00;;;;;;;0.45;0.32;;;;;;;;;;4931803;28;122805;-80
2023/07/20 09:27:39;;;;;;;0.63;0.40;;;;;;;;;;4932068;28;98252;-80
2023/07/20 09:30:08;;;;;;;0.52;0.30;;;;;;;;;;4936196;28;99491;-81
2023/07/20 09:32:43;;;;;;;0.52;0.40;;;;;;;;;;4931759;28;98511;-80
2023/07/20 09:35:16;;;;;;;1.25;0.77;;;;;;;;;;4932709;28;99553;-80
2023/07/20 09:37:51;;;;;;;2.75;0.40;;;;;;;;;;4932544;28;100232;-79
2023/07/20 09:40:19;;;;;;;0.68;0.30;;;;;;;;;;4931956;28;98201;-81
2023/07/20 09:42:45;;;;;;;0.20;0.20;;;;;;;;;;4932921;28;99362;-81
2023/07/20 09:45:36;;;;;;;0.50;0.50;;;;;;;;;;4932166;28;99281;-81
2023/07/20 09:48:06;;;;;;;0.30;0.30;;;;;;;;;;4933418;28;98271;-81
2023/07/20 09:50:42;;;;;;;0.75;0.50;;;;;;;;;;4933489;28;98971;-81
2023/07/20 09:53:11;;;;;;;0.45;0.40;;;;;;;;;;4934826;28;99757;-81
2023/07/20 09:55:39;;;;;;;2.40;0.50;;;;;;;;;;4932698;28;99540;-81
2023/07/20 09:58:07;;;;;;;2.83;0.95;;;;;;;;;;4932728;28;99092;-81
2023/07/20 10:00:35;;;;;;;0.25;0.25;;;;;;;;;;4930863;28;98380;-81
2023/07/20 10:03:04;;;;;;;0.65;0.30;;;;;;;;;;4932911;28;99373;-81
2023/07/20 10:05:33;;;;;;;0.45;0.30;;;;;;;;;;4932586;28;99902;-81
2023/07/20 10:08:04;;;;;;;2.75;0.30;;;;;;;;;;4931140;28;98423;-81
2023/07/20 10:10:35;;;;;;;2.72;0.60;;;;;;;;;;4932331;28;99466;-80
2023/07/20 10:13:03;;;;;;;0.20;0.20;;;;;;;;;;4932184;28;99045;-81
2023/07/20 10:15:32;;;;;;;0.40;0.35;;;;;;;;;;4934790;28;98471;-80
2023/07/20 10:18:21;;;;;;;0.65;0.30;;;;;;;;;;4931683;28;98964;-80
2023/07/20 10:20:48;;;;;;;0.47;0.47;;;;;;;;;;4931468;28;98196;-80
2023/07/20 10:23:18;;;;;;;0.70;0.70;;;;;;;;;;4932240;28;99788;-81
2023/07/20 10:25:45;;;;;;;0.30;0.30;;;;;;;;;;4932056;28;100166;-81
2023/07/20 10:28:12;;;;;;;1.23;0.40;;;;;;;;;;4930276;28;98213;-80
2023/07/20 10:30:40;;;;;;;0.30;0.30;;;;;;;;;;4932316;28;99342;-81
2023/07/20 10:33:06;;;;;;;0.65;0.32;;;;;;;;;;4932124;28;100019;-80
2023/07/20 10:35:52;;;;;;;0.60;0.40;;;;;;;;;;4931358;28;99179;-79
2023/07/20 10:38:18;;;;;;;0.50;0.50;;;;;;;;;;4931678;28;98880;-80
2023/07/20 10:40:53;;;;;;;0.40;0.40;;;;;;;;;;4927865;28;98197;-81
2023/07/20 10:43:21;;;;;;;0.50;0.35;;;;;;;;;;4930542;28;98784;-80
2023/07/20 10:45:49;;;;;;;0.22;0.20;;;;;;;;;;4931975;28;100144;-80
2023/07/20 10:48:19;;;;;;;0.20;0.20;;;;;;;;;;4931767;28;98128;-80
2023/07/20 10:50:46;;;;;;;0.40;0.40;;;;;;;;;;4931453;28;99415;-82
2023/07/20 10:53:16;;;;;;;0.40;0.40;;;;;;;;;;4931337;28;100199;-81
2023/07/20 10:55:43;;;;;;;0.32;0.32;;;;;;;;;;4932111;28;98240;-81
2023/07/20 10:58:11;;;;;;;0.20;0.20;;;;;;;;;;4931012;28;98548;-79
2023/07/20 11:00:54;;;;;;;0.40;0.40;;;;;;;;;;4934514;28;98394;-80
2023/07/20 11:03:27;;;;;;;0.40;0.40;;;;;;;;;;4930854;28;99732;-81
2023/07/20 11:05:57;;;;;;;0.30;0.30;;;;;;;;;;4931880;28;99077;-80
2023/07/20 11:08:42;;;;;;;0.30;0.30;;;;;;;;;;4930136;28;98356;-80
2023/07/20 11:11:21;;;;;;;0.70;0.40;;;;;;;;;;4930749;28;98795;-80
2023/07/20 11:14:04;;;;;;;0.35;0.35;;;;;;;;;;4931518;28;98942;-80
2023/07/20 11:16:36;;;;;;;0.43;0.40;;;;;;;;;;4931767;28;98277;-80
2023/07/20 11:19:03;;;;;;;3.97;0.50;;;;;;;;;;4930772;28;99521;-80
2023/07/20 11:21:37;;;;;;;1.58;0.50;;;;;;;;;;4934307;28;99999;-82
2023/07/20 11:24:21;;;;;;;0.93;0.90;;;;;;;;;;4930442;28;99220;-79
2023/07/20 11:26:47;;;;;;;0.50;0.40;;;;;;;;;;4931403;28;99423;-80
2023/07/20 11:29:15;;;;;;;0.30;0.30;;;;;;;;;;4930962;28;98311;-81
2023/07/20 11:31:56;;;;;;;0.40;0.40;;;;;;;;;;4931005;28;99569;-79
2023/07/20 11:34:24;;;;;;;0.40;0.40;;;;;;;;;;4929880;28;100008;-80
2023/07/20 11:36:51;;;;;;;0.20;0.20;;;;;;;;;;4931017;28;98294;-79
2023/07/20 11:39:21;;;;;;;0.40;0.40;;;;;;;;;;4930298;28;99492;-80
2023/07/20 11:41:50;;;;;;;0.30;0.30;;;;;;;;;;4931112;28;101728;-80
2023/07/20 11:44:16;;;;;;;0.30;0.30;;;;;;;;;;4934396;28;99130;-80
2023/07/20 11:46:44;;;;;;;0.43;0.35;;;;;;;;;;4933051;28;98959;-81
2023/07/20 11:49:13;;;;;;;0.65;0.40;;;;;;;;;;4931086;28;98354;-80
2023/07/20 11:51:40;;;;;;;0.30;0.30;;;;;;;;;;4931730;28;99796;-80
2023/07/20 11:54:07;;;;;;;0.30;0.30;;;;;;;;;;4930122;28;98479;-80
2023/07/20 11:56:34;;;;;;;0.30;0.30;;;;;;;;;;4930949;28;98180;-80
2023/07/20 11:59:01;;;;;;;0.47;0.30;;;;;;;;;;4930429;28;98101;-80
2023/07/20 12:01:29;;;;;;;0.47;0.43;;;;;;;;;;4930096;28;99855;-81
2023/07/20 12:03:56;;;;;;;2.70;0.38;;;;;;;;;;4932012;28;98321;-80
2023/07/20 12:06:24;;;;;;;0.70;0.55;;;;;;;;;;4938235;28;98014;-80
2023/07/20 12:08:58;;;;;;;2.00;0.45;;;;;;;;;;4933248;28;98131;-81
2023/07/20 12:11:34;;;;;;;0.50;0.40;;;;;;;;;;4932034;28;99406;-80
2023/07/20 12:14:01;;;;;;;0.30;0.30;;;;;;;;;;4930739;28;99810;-80
2023/07/20 12:16:43;;;;;;;0.73;0.40;;;;;;;;;;4931447;28;98428;-81
2023/07/20 12:19:10;;;;;;;0.40;0.40;;;;;;;;;;4930912;28;99677;-81
2023/07/20 12:21:38;;;;;;;3.05;0.50;;;;;;;;;;4929897;28;99856;-81
2023/07/20 12:24:05;;;;;;;0.30;0.30;;;;;;;;;;4929502;28;98227;-81
2023/07/20 12:26:32;;;;;;;0.40;0.40;;;;;;;;;;4930553;28;98453;-80
2023/07/20 12:28:59;;;;;;;0.50;0.50;;;;;;;;;;4934039;28;99830;-80
2023/07/20 12:31:27;;;;;;;0.40;0.40;;;;;;;;;;4930595;28;99407;-79
2023/07/20 12:33:56;;;;;;;0.63;0.40;;;;;;;;;;4930724;28;99233;-79
2023/07/20 12:36:23;;;;;;;0.57;0.57;;;;;;;;;;4911275;28;98286;-81
2023/07/20 12:38:50;;;;;;;0.40;0.40;;;;;;;;;;4930701;28;99387;-81
2023/07/20 12:41:17;;;;;;;0.55;0.55;;;;;;;;;;4914838;28;99252;-79
2023/07/20 12:43:44;;;;;;;0.40;0.40;;;;;;;;;;4910625;28;98801;-81
2023/07/20 12:46:11;;;;;;;1.20;0.40;;;;;;;;;;4911226;28;99705;-80
2023/07/20 12:48:40;;;;;;;0.50;0.50;;;;;;;;;;4911056;28;100195;-80
2023/07/20 12:51:08;;;;;;;0.55;0.40;;;;;;;;;;4914603;28;98357;-80
2023/07/20 12:53:34;;;;;;;0.88;0.43;;;;;;;;;;4911025;28;99860;-80
2023/07/20 12:56:01;;;;;;;0.70;0.70;;;;;;;;;;4910298;28;98357;-80
2023/07/20 12:58:49;;;;;;;2.72;0.52;;;;;;;;;;4928424;28;98591;-81
2023/07/20 13:01:16;;;;;;;3.38;0.57;;;;;;;;;;4929899;28;100208;-81
2023/07/20 13:03:42;;;;;;;0.47;0.47;;;;;;;;;;4929711;28;98226;-81
2023/07/20 13:06:12;;;;;;;2.65;0.55;;;;;;;;;;4929670;28;99486;-80
2023/07/20 13:08:41;;;;;;;0.75;0.60;;;;;;;;;;4930279;28;99042;-81
2023/07/20 13:11:07;;;;;;;0.52;0.52;;;;;;;;;;4932862;28;98401;-81
2023/07/20 13:13:34;;;;;;;1.13;0.73;;;;;;;;;;4929057;28;100093;-80
2023/07/20 13:16:02;;;;;;;1.55;0.65;;;;;;;;;;4930012;28;98255;-80
2023/07/20 13:18:29;;;;;;;0.50;0.50;;;;;;;;;;4929066;28;98613;-81
2023/07/20 13:20:57;;;;;;;0.30;0.30;;;;;;;;;;4929518;28;99467;-79
2023/07/20 13:23:27;;;;;;;0.60;0.60;;;;;;;;;;4929754;28;98142;-80
2023/07/20 13:25:54;;;;;;;0.50;0.50;;;;;;;;;;4928922;28;98771;-80
2023/07/20 13:28:21;;;;;;;0.40;0.40;;;;;;;;;;4928347;28;100203;-81
2023/07/20 13:30:47;;;;;;;0.75;0.40;;;;;;;;;;4929099;28;98056;-81
2023/07/20 13:33:13;;;;;;;0.50;0.50;;;;;;;;;;4932840;28;99559;-80
2023/07/20 13:35:44;;;;;;;2.85;0.60;;;;;;;;;;4913587;28;98309;-80
2023/07/20 13:38:13;;;;;;;0.55;0.55;;;;;;;;;;4911966;28;98522;-80
2023/07/20 13:40:40;;;;;;;0.82;0.60;;;;;;;;;;4913482;28;100141;-80
2023/07/20 13:43:06;;;;;;;0.65;0.60;;;;;;;;;;4913632;28;98258;-80
2023/07/20 13:45:33;;;;;;;0.63;0.63;;;;;;;;;;4912761;28;99893;-80
2023/07/20 13:47:59;;;;;;;0.95;0.60;;;;;;;;;;4913450;28;98843;-80
2023/07/20 13:50:28;;;;;;;2.47;0.80;;;;;;;;;;4913183;28;98248;-80
2023/07/20 13:53:08;;;;;;;0.73;0.70;;;;;;;;;;4913470;28;98759;-80
2023/07/20 13:55:38;;;;;;;2.30;0.70;;;;;;;;;;4917486;28;99030;-80
2023/07/20 13:58:09;;;;;;;0.60;0.60;;;;;;;;;;4924458;28;99620;-80
2023/07/20 14:00:38;;;;;;;0.40;0.40;;;;;;;;;;4931200;28;99135;-80
2023/07/20 14:03:05;;;;;;;1.23;0.50;;;;;;;;;;4932036;28;98255;-80
2023/07/20 14:05:34;;;;;;;0.55;0.55;;;;;;;;;;4932568;28;99401;-80
2023/07/20 14:08:03;;;;;;;1.58;0.50;;;;;;;;;;4930208;28;98944;-81
2023/07/20 14:10:30;;;;;;;0.63;0.63;;;;;;;;;;4932065;28;98379;-80
2023/07/20 14:12:56;;;;;;;1.92;0.90;;;;;;;;;;4932091;28;98653;-80
2023/07/20 14:15:22;;;;;;;1.17;0.70;;;;;;;;;;4932147;28;99079;-81
2023/07/20 14:17:49;;;;;;;0.65;0.60;;;;;;;;;;4936042;28;98187;-81
2023/07/20 14:20:15;;;;;;;1.13;0.65;;;;;;;;;;4932471;28;99953;-80
2023/07/20 14:22:45;;;;;;;0.80;0.80;;;;;;;;;;4934241;28;97992;-80
2023/07/20 14:25:11;;;;;;;1.38;0.80;;;;;;;;;;4932462;28;98789;-80
2023/07/20 14:27:38;;;;;;;1.13;0.70;;;;;;;;;;4930495;28;99981;-78
2023/07/20 14:30:05;;;;;;;0.50;0.50;;;;;;;;;;4932250;28;98312;-79
2023/07/20 14:32:33;;;;;;;0.60;0.60;;;;;;;;;;4932318;28;99272;-79
2023/07/20 14:35:00;;;;;;;0.40;0.40;;;;;;;;;;4931343;28;99884;-79
2023/07/20 14:37:26;;;;;;;1.08;0.88;;;;;;;;;;4931388;28;98248;-80
2023/07/20 14:39:55;;;;;;;1.88;0.52;;;;;;;;;;4914765;28;99646;-80
2023/07/20 14:42:21;;;;;;;1.63;0.68;;;;;;;;;;4910659;28;98000;-80
2023/07/20 14:44:48;;;;;;;0.95;0.70;;;;;;;;;;4912210;28;99376;-81
2023/07/20 14:47:14;;;;;;;0.45;0.45;;;;;;;;;;4912183;28;99824;-81